Surface observations / UK / EGOM

Quebec | Canada | USA | France | UK | Europe | Elsewhere

Display: Info & Location for EGOM | Help decoding METAR


Raw surface observations for station EGOM
EGOM 130550Z AUTO 06007KT 9000 -RADZ OVC001/// 00/00 Q0991=
EGOM 130450Z AUTO 06009KT 3500 UP BKN002/// 00/00 Q0991=
EGOM 130350Z AUTO 05008KT 7000 BR FEW013/// BKN046/// M00/M00 Q0991=
EGOM 130250Z AUTO 05008KT 8000 BR FEW015/// SCT020/// BKN060/// M00/M00 Q0992=
EGOM 130050Z AUTO 05007KT 8000 BR BKN014/// BKN070/// M00/M00 Q0993=
EGOM 122350Z AUTO 04005KT 6000 BR SCT015/// M01/M01 Q0994=
EGOM 122250Z AUTO 04006KT 5000 BR NCD M02/M02 Q0994=
EGOM 122150Z AUTO 04006KT 9000 BR FEW017/// M01/M01 Q0995=
EGOM 122050Z AUTO 05008KT 9999 FEW018/// M00/M01 Q0995=
EGOM 121950Z AUTO 05006KT 9999 SCT050/// 00/M00 Q0996=
EGOM 121850Z AUTO 06008KT 9999 OVC050/// 01/00 Q0996=
EGOM 121750Z AUTO 05006KT 9999 OVC050/// 02/00 Q0996=
EGOM 121650Z AUTO 06006KT 9999 BKN047/// 03/01 Q0995=
EGOM 121550Z AUTO 12007KT 9999 BKN060/// 03/M00 Q0995=
EGOM 121450Z AUTO 09008KT 9999 FEW060/// 05/M00 Q0995=
EGOM 121350Z AUTO 09008KT 9999 SCT060/// 05/00 Q0995=
EGOM 121250Z 11008KT 9999 FEW012 BKN060 04/01 Q0995 BLU=
EGOM 121150Z 08009KT 9999 BKN006 BKN060 03/03 Q0995 YLO1=
EGOM 121050Z 09008KT 7000 BR SCT001 SCT025 BKN060 02/02 Q0995 RED=
EGOM 120950Z 08009KT 1000 BR BKN001 BKN025 01/01 Q0995 RED=
EGOM 120850Z 07011KT 3000 BR BKN002 BKN062 00/00 Q0995 AMB=
EGOM 120750Z AUTO 07010KT 1100 BR BKN002/// BKN060/// 00/00 Q0995=
EGOM 120650Z AUTO 07007KT 9999 BKN006/// BKN050/// M01/M01 Q0995=
EGOM 120550Z AUTO 05007KT 9999 SCT008/// SCT050/// BKN140/// M01/M01 Q0995=